Time;durP1;ratioP1;P1;durP2;ratioP2;P2;SDS_P1;SDS_P2;PMS_P1;PMS_P2;Temp;Humidity;BMP_temperature;BMP_pressure;BME280_temperature;BME280_humidity;BME280_pressure;Samples;Min_cycle;Max_cycle;Signal;HPM_P1;HPM_P2
2022/02/15 00:01:46;;;;;;;5.45;1.63;;;5.50;99.90;;;;;;5011823;28;20148;-71
2022/02/15 00:04:14;;;;;;;6.63;1.75;;;5.60;99.90;;;;;;5026001;28;20136;-70
2022/02/15 00:06:41;;;;;;;6.65;1.83;;;5.50;99.90;;;;;;5002681;28;20058;-70
2022/02/15 00:09:08;;;;;;;8.60;1.95;;;5.50;99.90;;;;;;5034473;28;20125;-70
2022/02/15 00:11:36;;;;;;;4.30;2.50;;;5.50;99.90;;;;;;5010298;28;20441;-70
2022/02/15 00:14:02;;;;;;;6.10;2.33;;;5.40;99.90;;;;;;5011521;28;20057;-70
2022/02/15 00:16:29;;;;;;;7.70;2.15;;;5.40;99.90;;;;;;5012314;28;20046;-70
2022/02/15 00:18:57;;;;;;;11.13;2.38;;;5.40;99.90;;;;;;5011940;28;20097;-70
2022/02/15 00:21:24;;;;;;;8.48;2.30;;;5.30;99.90;;;;;;5016407;28;20498;-70
2022/02/15 00:23:51;;;;;;;7.18;2.35;;;5.30;99.90;;;;;;5013415;28;20050;-70
2022/02/15 00:26:24;;;;;;;6.90;2.10;;;5.30;99.90;;;;;;5023632;28;20043;-70
2022/02/15 00:28:51;;;;;;;5.88;2.20;;;5.20;99.90;;;;;;5012523;28;20068;-69
2022/02/15 00:31:18;;;;;;;5.88;1.90;;;5.20;99.90;;;;;;5012200;28;20069;-70
2022/02/15 00:33:45;;;;;;;7.82;2.15;;;5.20;99.90;;;;;;5026856;28;20052;-70
2022/02/15 00:36:12;;;;;;;6.75;2.13;;;5.10;99.90;;;;;;5031088;28;20049;-70
2022/02/15 00:38:39;;;;;;;5.90;1.73;;;5.10;99.90;;;;;;5031727;28;20485;-70
2022/02/15 00:41:07;;;;;;;6.53;1.95;;;5.10;99.90;;;;;;5028785;28;20070;-70
2022/02/15 00:43:34;;;;;;;8.38;2.00;;;5.00;99.90;;;;;;5014890;28;20042;-69
2022/02/15 00:46:01;;;;;;;5.47;2.03;;;4.90;99.90;;;;;;5016659;28;20103;-70
2022/02/15 00:48:28;;;;;;;6.65;2.60;;;4.90;99.90;;;;;;4978540;28;20449;-69
2022/02/15 00:50:55;;;;;;;4.88;1.58;;;4.90;99.90;;;;;;5011912;28;20069;-70
2022/02/15 00:53:22;;;;;;;10.23;2.08;;;4.90;99.90;;;;;;5012791;28;20501;-69
2022/02/15 00:55:49;;;;;;;3.80;1.55;;;4.80;99.90;;;;;;5011044;28;20076;-70
2022/02/15 00:58:16;;;;;;;7.07;1.88;;;4.80;99.90;;;;;;5017808;28;20049;-70
2022/02/15 01:00:43;;;;;;;5.18;1.70;;;4.80;99.90;;;;;;5023103;28;20046;-70
2022/02/15 01:03:10;;;;;;;7.93;1.90;;;4.70;99.90;;;;;;5042661;28;20630;-70
2022/02/15 01:05:37;;;;;;;6.32;1.70;;;4.70;99.90;;;;;;5012269;28;20046;-70
2022/02/15 01:08:04;;;;;;;6.20;1.90;;;4.70;99.90;;;;;;5010265;28;20062;-70
2022/02/15 01:10:31;;;;;;;4.47;2.65;;;4.70;99.90;;;;;;4990966;28;20046;-70
2022/02/15 01:12:58;;;;;;;8.07;1.63;;;4.60;99.90;;;;;;5011760;28;20077;-70
2022/02/15 01:15:25;;;;;;;7.15;2.15;;;4.60;99.90;;;;;;5013776;28;20046;-69
2022/02/15 01:17:52;;;;;;;4.47;1.70;;;4.60;99.90;;;;;;5013031;28;20054;-69
2022/02/15 01:20:19;;;;;;;5.88;2.63;;;4.60;99.90;;;;;;4998752;28;20046;-70
2022/02/15 01:22:46;;;;;;;5.15;1.90;;;4.60;99.90;;;;;;5015977;28;20441;-70
2022/02/15 01:25:13;;;;;;;3.20;1.50;;;4.50;99.90;;;;;;5013858;28;20046;-70
2022/02/15 01:27:40;;;;;;;6.10;1.95;;;4.60;99.90;;;;;;5014253;28;20505;-70
2022/02/15 01:30:07;;;;;;;6.57;2.10;;;4.50;99.90;;;;;;5029783;28;20064;-69
2022/02/15 01:32:34;;;;;;;7.40;1.80;;;4.50;99.90;;;;;;5033585;28;20104;-70
2022/02/15 01:35:01;;;;;;;7.55;2.25;;;4.50;99.90;;;;;;5034602;28;20065;-69
2022/02/15 01:37:29;;;;;;;4.50;1.67;;;4.50;99.90;;;;;;5015290;28;20385;-70
2022/02/15 01:39:56;;;;;;;5.65;1.88;;;4.40;99.90;;;;;;5017308;28;20536;-70
2022/02/15 01:42:23;;;;;;;5.53;1.70;;;4.40;99.90;;;;;;5026317;28;20041;-71
2022/02/15 01:44:50;;;;;;;7.53;2.15;;;4.40;99.90;;;;;;5014104;28;20061;-70
2022/02/15 01:47:24;;;;;;;9.70;2.03;;;4.40;99.90;;;;;;5017716;28;20073;-69
2022/02/15 01:49:52;;;;;;;7.45;2.15;;;4.40;99.90;;;;;;5013297;28;20395;-70
2022/02/15 01:52:20;;;;;;;5.13;1.88;;;4.30;99.90;;;;;;5014914;28;20068;-70
2022/02/15 01:54:53;;;;;;;5.68;1.90;;;4.30;99.90;;;;;;5015985;28;20046;-70
2022/02/15 01:57:21;;;;;;;7.97;1.92;;;4.30;99.90;;;;;;5013975;28;20486;-70
2022/02/15 01:59:48;;;;;;;8.07;2.30;;;4.30;99.90;;;;;;5025820;28;20128;-69
2022/02/15 02:02:15;;;;;;;6.63;2.53;;;4.30;99.90;;;;;;5027335;28;20046;-70
2022/02/15 02:07:27;;;;;;;10.23;2.08;;;4.30;99.90;;;;;;5007448;28;20054;-70
2022/02/15 02:09:54;;;;;;;6.57;1.85;;;4.30;99.90;;;;;;5001051;28;20128;-71
2022/02/15 02:12:21;;;;;;;9.07;2.33;;;4.20;99.90;;;;;;5014714;28;20065;-70
2022/02/15 02:14:59;;;;;;;6.03;2.25;;;4.20;99.90;;;;;;5015037;28;20089;-70
2022/02/15 02:17:26;;;;;;;6.22;1.88;;;4.30;99.90;;;;;;5014530;28;20053;-70
2022/02/15 02:19:56;;;;;;;8.00;1.92;;;4.20;99.90;;;;;;5027628;28;20060;-70
2022/02/15 02:22:27;;;;;;;6.75;1.77;;;4.30;99.90;;;;;;5013457;28;20129;-70
2022/02/15 02:24:55;;;;;;;4.47;1.83;;;4.30;99.90;;;;;;5024751;28;20057;-70
2022/02/15 02:27:28;;;;;;;4.95;1.80;;;4.20;99.90;;;;;;5031032;28;20117;-70
2022/02/15 02:29:55;;;;;;;3.88;1.75;;;4.20;99.90;;;;;;5016121;28;20066;-70
2022/02/15 02:32:23;;;;;;;3.42;1.65;;;4.20;99.90;;;;;;5021151;28;20512;-71
2022/02/15 02:34:51;;;;;;;3.75;2.13;;;4.20;99.90;;;;;;5030459;28;20041;-70
2022/02/15 02:37:18;;;;;;;4.82;2.25;;;4.20;99.90;;;;;;5021246;28;20053;-70
2022/02/15 02:39:46;;;;;;;7.60;2.30;;;4.20;99.90;;;;;;5013210;28;20054;-70
2022/02/15 02:42:13;;;;;;;4.13;1.60;;;4.20;99.90;;;;;;5025915;28;20057;-71
2022/02/15 02:44:40;;;;;;;4.53;1.80;;;4.20;99.90;;;;;;5029405;28;20489;-71
2022/02/15 02:47:07;;;;;;;7.40;2.38;;;4.20;99.90;;;;;;5025273;28;20053;-71
2022/02/15 02:49:34;;;;;;;5.00;1.50;;;4.20;99.90;;;;;;5030347;28;20045;-71
2022/02/15 02:52:02;;;;;;;6.93;2.47;;;4.20;99.90;;;;;;5013696;28;20053;-71
2022/02/15 02:54:29;;;;;;;6.32;2.00;;;4.10;99.90;;;;;;5015095;28;20049;-72
2022/02/15 02:56:56;;;;;;;2.63;1.55;;;4.10;99.90;;;;;;5030204;28;20042;-71
2022/02/15 02:59:23;;;;;;;3.63;1.75;;;4.10;99.90;;;;;;5029602;28;20041;-71
2022/02/15 03:01:49;;;;;;;5.88;2.00;;;4.10;99.90;;;;;;5018357;28;20046;-71
2022/02/15 03:04:16;;;;;;;7.20;1.80;;;4.10;99.90;;;;;;5006556;28;20054;-72
2022/02/15 03:06:43;;;;;;;5.25;1.88;;;4.10;99.90;;;;;;5023053;28;20045;-71
2022/02/15 03:09:10;;;;;;;3.88;2.10;;;4.00;99.90;;;;;;5033435;28;20050;-71
2022/02/15 03:11:37;;;;;;;6.20;1.95;;;4.00;99.90;;;;;;5014069;28;20056;-71
2022/02/15 03:14:04;;;;;;;6.78;1.83;;;4.00;99.90;;;;;;5032059;28;20076;-71
2022/02/15 03:16:31;;;;;;;10.20;2.78;;;4.00;99.90;;;;;;5012822;28;20438;-71
2022/02/15 03:18:59;;;;;;;6.15;2.00;;;4.00;99.90;;;;;;5012248;28;20049;-71
2022/02/15 03:21:26;;;;;;;3.03;1.80;;;3.90;99.90;;;;;;5013720;28;20056;-73
2022/02/15 03:23:53;;;;;;;6.13;2.00;;;3.90;99.90;;;;;;5013476;28;20048;-72
2022/02/15 03:26:20;;;;;;;4.90;2.15;;;3.90;99.90;;;;;;5013863;28;20052;-71
2022/02/15 03:28:47;;;;;;;6.38;2.60;;;3.90;99.90;;;;;;5024277;28;20060;-71
2022/02/15 03:31:14;;;;;;;3.88;2.05;;;3.80;99.90;;;;;;5024424;28;20046;-71
2022/02/15 03:33:40;;;;;;;4.85;1.55;;;3.80;99.90;;;;;;5019358;28;20055;-71
2022/02/15 03:36:07;;;;;;;5.05;1.80;;;3.80;99.90;;;;;;5028235;28;20056;-72
2022/02/15 03:38:34;;;;;;;4.88;1.70;;;3.80;99.90;;;;;;5022855;28;20049;-71
2022/02/15 03:43:47;;;;;;;8.55;2.85;;;3.80;99.90;;;;;;5022722;28;20503;-72
2022/02/15 03:46:14;;;;;;;4.57;2.05;;;3.70;99.90;;;;;;5000961;28;20452;-71
2022/02/15 03:48:41;;;;;;;4.50;1.73;;;3.70;99.90;;;;;;5012040;28;20045;-71
2022/02/15 03:51:07;;;;;;;4.15;1.45;;;3.70;99.90;;;;;;4996240;28;20123;-72
2022/02/15 03:53:34;;;;;;;6.68;2.38;;;3.70;99.90;;;;;;4995119;28;20351;-71
2022/02/15 03:56:06;;;;;;;7.57;2.30;;;3.70;99.90;;;;;;5029387;28;20485;-71
2022/02/15 03:58:33;;;;;;;4.53;1.80;;;3.70;99.90;;;;;;5024270;28;20081;-71
2022/02/15 04:01:00;;;;;;;3.90;2.35;;;3.70;99.90;;;;;;5016368;28;20049;-71
2022/02/15 04:03:27;;;;;;;7.38;2.05;;;3.70;99.90;;;;;;5015019;28;20506;-71
2022/02/15 04:05:54;;;;;;;8.40;3.13;;;3.70;99.90;;;;;;5027356;28;20059;-71
2022/02/15 04:08:25;;;;;;;9.18;2.38;;;3.70;99.90;;;;;;5024134;28;20114;-71
2022/02/15 04:10:51;;;;;;;5.60;2.65;;;3.70;99.90;;;;;;5017534;28;20515;-71
2022/02/15 04:13:18;;;;;;;5.82;2.38;;;3.70;99.90;;;;;;5023923;28;20041;-71
2022/02/15 04:15:45;;;;;;;4.70;1.80;;;3.70;99.90;;;;;;5027376;28;20060;-71
2022/02/15 04:18:12;;;;;;;4.72;2.58;;;3.70;99.90;;;;;;5010484;28;20069;-71
2022/02/15 04:20:39;;;;;;;10.85;3.05;;;3.70;99.90;;;;;;5023822;28;20042;-71
2022/02/15 04:23:06;;;;;;;6.70;2.33;;;3.70;99.90;;;;;;5015259;28;20038;-71
2022/02/15 04:25:33;;;;;;;3.40;1.60;;;3.70;99.90;;;;;;5004223;28;20058;-71
2022/02/15 04:28:00;;;;;;;5.38;2.65;;;3.70;99.90;;;;;;5022425;28;20160;-71
2022/02/15 04:30:27;;;;;;;6.50;2.22;;;3.70;99.90;;;;;;5025212;28;20517;-72
2022/02/15 04:32:54;;;;;;;16.08;3.58;;;3.70;99.90;;;;;;5029842;28;20049;-71
2022/02/15 04:35:21;;;;;;;7.22;2.83;;;3.70;99.90;;;;;;5016197;28;20416;-72
2022/02/15 04:37:48;;;;;;;4.65;1.65;;;3.70;99.90;;;;;;5017010;28;20046;-71
2022/02/15 04:40:15;;;;;;;4.70;2.25;;;3.70;99.90;;;;;;5020701;28;20489;-71
2022/02/15 04:42:42;;;;;;;4.97;1.70;;;3.70;99.90;;;;;;5002600;28;20050;-71
2022/02/15 04:45:09;;;;;;;9.52;2.65;;;3.70;99.90;;;;;;5042745;28;20525;-71
2022/02/15 04:47:36;;;;;;;7.88;2.20;;;3.60;99.90;;;;;;5022583;28;20053;-71
2022/02/15 04:50:03;;;;;;;6.28;1.80;;;3.60;99.90;;;;;;5029738;28;20048;-71
2022/02/15 04:52:30;;;;;;;8.38;1.90;;;3.60;99.90;;;;;;5012247;28;20409;-72
2022/02/15 04:54:58;;;;;;;5.05;1.90;;;3.60;99.90;;;;;;5017975;28;20430;-71
2022/02/15 04:57:25;;;;;;;6.00;2.17;;;3.60;99.90;;;;;;5021834;28;20046;-71
2022/02/15 04:59:52;;;;;;;5.75;1.73;;;3.60;99.90;;;;;;5014333;28;20042;-71
2022/02/15 05:02:19;;;;;;;7.70;1.55;;;3.60;99.90;;;;;;5015227;28;20042;-71
2022/02/15 05:04:49;;;;;;;9.20;2.58;;;3.60;99.90;;;;;;5012019;28;20050;-75
2022/02/15 05:07:17;;;;;;;5.63;2.65;;;3.60;99.90;;;;;;4995115;28;20053;-73
2022/02/15 05:09:44;;;;;;;6.88;3.25;;;3.60;99.90;;;;;;5012532;28;20046;-73
2022/02/15 05:12:11;;;;;;;5.68;2.40;;;3.60;99.90;;;;;;5013174;28;20061;-73
2022/02/15 05:14:38;;;;;;;4.60;1.50;;;3.60;99.90;;;;;;5019438;28;20049;-74
2022/02/15 05:17:05;;;;;;;3.90;1.98;;;3.60;99.90;;;;;;5012980;28;20054;-72
2022/02/15 05:19:32;;;;;;;6.18;1.50;;;3.60;99.90;;;;;;5013485;28;20123;-71
2022/02/15 05:22:00;;;;;;;3.90;1.63;;;3.70;99.90;;;;;;5015785;28;20496;-73
2022/02/15 05:24:27;;;;;;;6.15;1.63;;;3.80;99.90;;;;;;5016004;28;20045;-73
2022/02/15 05:26:54;;;;;;;5.95;1.90;;;3.80;99.90;;;;;;5024001;28;20046;-73
2022/02/15 05:29:21;;;;;;;7.43;1.90;;;3.90;99.90;;;;;;5022363;28;20501;-73
2022/02/15 05:31:49;;;;;;;3.85;1.73;;;4.00;99.90;;;;;;5013716;28;20042;-73
2022/02/15 05:34:16;;;;;;;5.32;2.67;;;4.00;99.90;;;;;;5011315;28;20116;-73
2022/02/15 05:36:43;;;;;;;7.40;1.75;;;4.00;99.90;;;;;;4992578;28;20050;-73
2022/02/15 05:39:10;;;;;;;5.40;2.40;;;4.10;99.90;;;;;;5012680;28;20058;-76
2022/02/15 05:41:37;;;;;;;5.88;3.22;;;4.20;99.90;;;;;;5028802;28;20049;-73
2022/02/15 05:44:04;;;;;;;7.20;1.75;;;4.20;99.90;;;;;;5021452;28;20128;-73
2022/02/15 05:46:31;;;;;;;8.50;1.92;;;4.30;99.90;;;;;;5014316;28;20049;-73
2022/02/15 05:48:58;;;;;;;7.75;1.88;;;4.30;99.90;;;;;;5013434;28;20054;-73
2022/02/15 05:51:25;;;;;;;7.68;2.55;;;4.40;99.90;;;;;;5012731;28;20046;-72
2022/02/15 05:53:52;;;;;;;9.57;1.92;;;4.50;99.90;;;;;;5024442;28;20060;-73
2022/02/15 05:56:21;;;;;;;8.20;2.00;;;4.50;99.90;;;;;;5016884;28;20121;-73
2022/02/15 05:58:48;;;;;;;6.30;1.90;;;4.50;99.90;;;;;;5021646;28;20470;-73
2022/02/15 06:01:15;;;;;;;11.30;3.15;;;4.60;99.90;;;;;;5025305;28;20400;-73
2022/02/15 06:06:27;;;;;;;4.97;2.50;;;4.70;99.90;;;;;;5030507;28;20057;-73
2022/02/15 06:08:54;;;;;;;8.20;2.78;;;4.70;99.90;;;;;;5022457;28;20054;-73
2022/02/15 06:11:21;;;;;;;3.67;1.85;;;4.70;99.90;;;;;;5025653;28;20405;-73
2022/02/15 06:13:50;;;;;;;10.27;2.20;;;4.70;99.90;;;;;;5027049;28;20076;-73
2022/02/15 06:16:17;;;;;;;8.00;2.30;;;4.70;99.90;;;;;;5023019;28;20042;-73
2022/02/15 06:18:44;;;;;;;12.88;3.28;;;4.60;99.90;;;;;;5023095;28;20049;-73
2022/02/15 06:21:11;;;;;;;5.25;1.75;;;4.60;99.90;;;;;;5022227;28;20041;-73
2022/02/15 06:23:38;;;;;;;4.45;1.50;;;4.60;99.90;;;;;;5030520;28;20136;-73
2022/02/15 06:26:09;;;;;;;5.75;1.85;;;4.60;99.90;;;;;;5023897;28;20415;-74
2022/02/15 06:28:36;;;;;;;8.68;3.13;;;4.70;99.90;;;;;;5025399;28;20050;-73
2022/02/15 06:31:03;;;;;;;9.75;2.72;;;4.70;99.90;;;;;;5022658;28;20064;-73
2022/02/15 06:33:30;;;;;;;10.10;2.63;;;4.70;99.90;;;;;;5023760;28;20049;-73
2022/02/15 06:35:57;;;;;;;7.30;3.42;;;4.70;99.90;;;;;;5026075;28;20061;-73
2022/02/15 06:38:24;;;;;;;9.77;2.97;;;4.80;99.90;;;;;;5030338;28;20061;-74
2022/02/15 06:40:51;;;;;;;9.55;2.78;;;4.80;99.90;;;;;;5019464;28;20053;-73
2022/02/15 06:43:18;;;;;;;7.45;2.00;;;4.90;99.90;;;;;;5031548;28;20061;-73
2022/02/15 06:45:45;;;;;;;5.43;2.00;;;4.90;99.90;;;;;;5017787;28;20050;-73
2022/02/15 06:48:12;;;;;;;5.85;1.85;;;4.90;99.90;;;;;;5027860;28;20050;-73
2022/02/15 06:50:39;;;;;;;10.00;2.17;;;5.00;99.90;;;;;;5024987;28;20065;-73
2022/02/15 06:53:06;;;;;;;7.65;2.80;;;5.10;99.90;;;;;;5004404;28;20852;-73
2022/02/15 06:55:53;;;;;;;10.43;2.92;;;5.10;99.90;;;;;;5016303;28;20046;-73
2022/02/15 06:58:27;;;;;;;12.77;2.55;;;5.10;99.90;;;;;;5020554;28;20049;-73
2022/02/15 07:00:54;;;;;;;7.95;2.58;;;5.20;99.90;;;;;;5016393;28;20054;-73
2022/02/15 07:03:21;;;;;;;13.45;3.45;;;5.20;99.90;;;;;;4995413;28;20057;-73
2022/02/15 07:05:48;;;;;;;10.25;2.78;;;5.20;99.90;;;;;;5019288;28;20057;-73
2022/02/15 07:08:15;;;;;;;12.02;2.20;;;5.20;99.90;;;;;;5012273;28;20050;-74
2022/02/15 07:10:41;;;;;;;8.68;2.63;;;5.20;99.90;;;;;;4994278;28;20379;-74
2022/02/15 07:13:08;;;;;;;8.55;2.13;;;5.20;99.90;;;;;;5032213;28;20146;-73
2022/02/15 07:15:35;;;;;;;11.38;3.63;;;5.30;99.90;;;;;;5027733;28;20056;-71
2022/02/15 07:18:02;;;;;;;26.23;12.93;;;5.30;99.90;;;;;;5029439;28;20049;-73
2022/02/15 07:20:32;;;;;;;;;;;5.40;99.90;;;;;;5026233;28;20045;-74
2022/02/15 07:22:59;;;;;;;8.85;4.28;;;5.40;99.90;;;;;;5044520;28;20395;-71
2022/02/15 07:25:26;;;;;;;11.10;3.25;;;5.50;99.90;;;;;;5020865;28;20053;-76
2022/02/15 07:27:53;;;;;;;9.10;2.28;;;5.50;99.90;;;;;;5030161;28;20405;-72
2022/02/15 07:30:20;;;;;;;7.95;2.45;;;5.60;99.90;;;;;;5029751;28;20050;-71
2022/02/15 07:32:47;;;;;;;9.85;2.72;;;5.60;99.90;;;;;;5014922;28;20038;-71
2022/02/15 07:35:17;;;;;;;10.63;3.58;;;5.60;99.90;;;;;;5042979;28;20050;-71
2022/02/15 07:37:50;;;;;;;10.80;2.67;;;5.70;99.90;;;;;;4992244;28;20062;-72
2022/02/15 07:40:22;;;;;;;7.43;2.67;;;5.70;99.90;;;;;;5012922;28;20088;-71
2022/02/15 07:42:49;;;;;;;8.85;2.55;;;5.80;99.90;;;;;;5015454;28;20049;-71
2022/02/15 07:45:20;;;;;;;60.53;34.17;;;5.80;99.90;;;;;;5012593;28;20382;-71
2022/02/15 07:47:52;;;;;;;12.90;5.57;;;5.90;99.90;;;;;;5016383;28;20045;-71
2022/02/15 07:50:20;;;;;;;11.93;3.28;;;6.00;99.90;;;;;;5012162;28;20061;-71
2022/02/15 07:52:57;;;;;;;15.18;4.03;;;6.00;99.90;;;;;;5015929;28;20057;-69
2022/02/15 07:55:24;;;;;;;8.13;3.80;;;6.00;99.90;;;;;;5011132;28;20056;-69
2022/02/15 07:57:51;;;;;;;11.50;2.83;;;6.10;99.90;;;;;;5011687;28;20050;-71
2022/02/15 08:00:20;;;;;;;15.68;3.63;;;6.10;99.90;;;;;;5021105;28;20057;-69
2022/02/15 08:02:51;;;;;;;10.20;3.10;;;6.20;99.90;;;;;;5021141;28;20074;-68
2022/02/15 08:05:21;;;;;;;12.63;3.50;;;6.20;99.90;;;;;;5021597;28;20049;-69
2022/02/15 08:07:54;;;;;;;11.75;2.78;;;6.30;99.90;;;;;;5015991;28;20053;-68
2022/02/15 08:10:23;;;;;;;10.55;2.90;;;6.40;99.90;;;;;;5011500;28;20058;-69
2022/02/15 08:12:58;;;;;;;15.05;2.75;;;6.50;99.90;;;;;;5029999;28;20408;-69
2022/02/15 08:15:30;;;;;;;9.45;2.20;;;6.60;99.90;;;;;;5006881;28;20046;-69
2022/02/15 08:17:58;;;;;;;8.60;2.55;;;6.70;99.90;;;;;;5022948;28;20400;-69
2022/02/15 08:20:32;;;;;;;13.77;3.03;;;6.70;99.90;;;;;;5027455;28;20076;-71
2022/02/15 08:22:59;;;;;;;11.10;3.13;;;6.80;99.90;;;;;;5012402;28;20064;-72
2022/02/15 08:25:28;;;;;;;12.45;3.22;;;6.80;99.90;;;;;;5016413;28;20045;-71
2022/02/15 08:27:55;;;;;;;15.98;2.90;;;6.90;99.90;;;;;;5015269;28;20054;-71
2022/02/15 08:30:22;;;;;;;12.02;3.20;;;6.90;99.90;;;;;;5014902;28;20059;-71
2022/02/15 08:32:49;;;;;;;13.57;3.15;;;6.90;99.90;;;;;;5029874;28;20096;-70
2022/02/15 08:35:17;;;;;;;11.85;3.00;;;7.00;99.90;;;;;;5028781;28;20049;-72
2022/02/15 08:37:44;;;;;;;15.57;3.03;;;7.00;99.90;;;;;;5030064;28;20511;-72
2022/02/15 08:40:14;;;;;;;16.17;3.90;;;7.00;99.90;;;;;;5019324;28;20508;-70
2022/02/15 08:42:43;;;;;;;10.40;3.70;;;7.10;99.90;;;;;;5030796;28;20100;-73
2022/02/15 08:45:10;;;;;;;16.27;3.47;;;7.10;99.90;;;;;;5016988;28;20053;-67
2022/02/15 08:47:37;;;;;;;14.27;2.80;;;7.20;99.90;;;;;;5015875;28;20068;-70
2022/02/15 08:50:04;;;;;;;19.55;4.45;;;7.30;99.90;;;;;;5010722;28;20053;-68
2022/02/15 08:52:31;;;;;;;18.63;7.32;;;7.40;99.90;;;;;;5019029;28;20045;-68
2022/02/15 08:54:58;;;;;;;12.35;3.65;;;7.50;99.90;;;;;;5026288;28;20670;-69
2022/02/15 08:57:25;;;;;;;22.48;3.85;;;7.60;99.90;;;;;;5028783;28;20068;-67
2022/02/15 08:59:53;;;;;;;11.25;3.88;;;7.60;99.90;;;;;;5026239;28;20050;-67
2022/02/15 09:02:23;;;;;;;12.50;3.33;;;7.70;99.90;;;;;;4995910;28;20587;-78
2022/02/15 09:04:50;;;;;;;14.75;3.13;;;7.80;99.90;;;;;;4999599;28;20441;-73
2022/02/15 09:07:18;;;;;;;12.45;3.17;;;7.90;99.90;;;;;;5028484;28;20065;-69
2022/02/15 09:09:47;;;;;;;13.98;4.70;;;8.00;99.90;;;;;;5011500;28;20069;-69
2022/02/15 09:12:19;;;;;;;12.27;3.08;;;8.00;99.90;;;;;;5014435;28;20107;-69
2022/02/15 09:14:52;;;;;;;16.08;4.45;;;8.10;99.90;;;;;;5018918;28;20380;-70
2022/02/15 09:17:22;;;;;;;12.02;2.97;;;8.20;99.90;;;;;;5009818;28;20054;-70
2022/02/15 09:19:51;;;;;;;15.70;4.07;;;8.30;99.90;;;;;;5042997;28;20144;-69
2022/02/15 09:22:23;;;;;;;20.67;6.20;;;8.30;99.90;;;;;;4991008;28;20152;-70
2022/02/15 09:25:13;;;;;;;17.90;3.90;;;8.40;99.90;;;;;;4989799;28;20135;-70
2022/02/15 09:27:54;;;;;;;14.23;4.13;;;8.40;99.90;;;;;;5025164;28;20059;-69
2022/02/15 09:30:26;;;;;;;;;;;8.50;99.90;;;;;;5030723;28;20057;-69
2022/02/15 09:32:56;;;;;;;15.60;3.80;;;8.50;99.90;;;;;;5017248;28;20000;-69
2022/02/15 09:35:28;;;;;;;14.18;3.63;;;8.60;99.90;;;;;;5013823;28;20153;-69
2022/02/15 09:37:57;;;;;;;9.93;3.50;;;8.70;99.90;;;;;;4989009;28;20177;-69
2022/02/15 09:40:56;;;;;;;18.80;3.53;;;8.70;99.90;;;;;;4995131;28;20448;-69
2022/02/15 09:43:36;;;;;;;17.55;3.25;;;8.80;99.90;;;;;;5023540;28;20080;-69
2022/02/15 09:46:13;;;;;;;19.48;3.78;;;9.00;99.90;;;;;;5021826;28;20056;-69
2022/02/15 09:48:49;;;;;;;17.25;6.10;;;9.00;99.90;;;;;;5034832;28;20057;-70
2022/02/15 09:51:46;;;;;;;14.38;3.40;;;9.10;99.90;;;;;;4987918;28;20042;-70
2022/02/15 09:54:19;;;;;;;12.05;4.15;;;9.20;99.90;;;;;;5026566;28;20497;-69
2022/02/15 09:56:47;;;;;;;16.65;4.00;;;9.30;99.90;;;;;;5045758;28;20050;-69
2022/02/15 09:59:19;;;;;;;13.43;4.43;;;9.30;99.90;;;;;;5035945;28;20464;-70
2022/02/15 10:01:47;;;;;;;20.50;4.20;;;9.40;99.90;;;;;;4998322;28;20045;-69
2022/02/15 10:04:18;;;;;;;14.07;3.22;;;9.50;99.90;;;;;;5015220;28;20052;-70
2022/02/15 10:06:51;;;;;;;16.60;4.50;;;9.60;99.90;;;;;;5013436;28;20053;-69
2022/02/15 10:09:30;;;;;;;13.38;3.60;;;9.60;99.90;;;;;;5013510;28;20072;-70
2022/02/15 10:12:07;;;;;;;15.55;3.45;;;9.70;99.90;;;;;;4997820;28;20058;-70
2022/02/15 10:14:44;;;;;;;20.33;5.13;;;9.80;99.90;;;;;;4977306;28;20054;-69
2022/02/15 10:17:14;;;;;;;20.50;4.50;;;9.80;99.90;;;;;;5015234;28;20058;-69
2022/02/15 10:19:53;;;;;;;13.40;3.85;;;9.80;99.90;;;;;;4988323;28;20056;-69
2022/02/15 10:22:24;;;;;;;19.38;6.00;;;9.80;99.90;;;;;;5001498;28;20049;-70
2022/02/15 10:25:02;;;;;;;14.85;4.40;;;9.80;99.90;;;;;;5013822;28;20100;-69
2022/02/15 10:27:31;;;;;;;15.70;4.82;;;9.80;99.90;;;;;;4999643;28;20141;-69
2022/02/15 10:30:03;;;;;;;18.95;5.40;;;9.90;99.90;;;;;;5013430;28;20053;-68
2022/02/15 10:32:32;;;;;;;20.77;4.70;;;9.90;99.90;;;;;;5014120;28;20053;-69
2022/02/15 10:35:01;;;;;;;;;;;10.00;99.90;;;;;;5013990;28;20057;-69
2022/02/15 10:37:36;;;;;;;13.55;3.92;;;10.00;99.90;;;;;;5014455;28;20270;-69
2022/02/15 10:40:05;;;;;;;18.77;4.07;;;10.00;99.90;;;;;;5016902;28;20066;-69
2022/02/15 10:42:38;;;;;;;14.43;3.92;;;10.00;99.90;;;;;;5006918;28;20054;-69
2022/02/15 10:45:08;;;;;;;17.98;4.88;;;10.00;99.90;;;;;;5039928;28;20128;-69
2022/02/15 10:47:45;;;;;;;19.10;4.47;;;10.00;99.90;;;;;;5011954;28;20507;-69
2022/02/15 10:50:18;;;;;;;14.07;4.03;;;10.00;99.90;;;;;;4996275;28;20042;-69
2022/02/15 10:52:47;;;;;;;13.02;3.45;;;9.90;99.90;;;;;;4992273;28;20197;-69
2022/02/15 10:55:14;;;;;;;17.45;4.30;;;9.90;99.90;;;;;;5011270;28;20100;-69
2022/02/15 10:57:43;;;;;;;17.65;4.32;;;9.90;99.90;;;;;;5027827;28;20103;-69
2022/02/15 11:00:13;;;;;;;18.40;5.90;;;9.80;99.90;;;;;;5027411;28;20045;-70
2022/02/15 11:02:40;;;;;;;;;;;9.80;99.90;;;;;;5018510;28;20050;-69
2022/02/15 11:05:08;;;;;;;12.73;3.63;;;9.80;99.90;;;;;;4977367;28;19921;-69
2022/02/15 11:07:39;;;;;;;11.60;4.15;;;9.80;99.90;;;;;;5019052;28;20054;-69
2022/02/15 11:10:28;;;;;;;15.27;4.15;;;9.80;99.90;;;;;;5032355;28;20453;-69
2022/02/15 11:12:58;;;;;;;12.23;4.45;;;9.70;99.90;;;;;;5033007;28;20053;-69
2022/02/15 11:15:30;;;;;;;18.45;4.50;;;9.70;99.90;;;;;;5013892;28;20061;-69
2022/02/15 11:18:02;;;;;;;9.63;3.60;;;9.80;99.90;;;;;;4980749;28;20359;-68
2022/02/15 11:20:50;;;;;;;13.02;3.60;;;9.70;99.90;;;;;;5023566;28;20090;-69
2022/02/15 11:23:28;;;;;;;14.82;3.85;;;9.70;99.90;;;;;;5013194;28;20049;-70
2022/02/15 11:26:05;;;;;;;22.10;5.88;;;9.60;99.90;;;;;;4996437;28;20046;-70
2022/02/15 11:28:32;;;;;;;13.80;3.72;;;9.60;99.90;;;;;;4996732;28;20070;-71
2022/02/15 11:31:00;;;;;;;14.27;3.80;;;9.50;99.90;;;;;;5013756;28;20053;-70
2022/02/15 11:33:28;;;;;;;21.30;4.45;;;9.50;99.90;;;;;;4996677;28;20062;-69
2022/02/15 11:35:56;;;;;;;15.55;3.85;;;9.60;99.90;;;;;;5015949;28;20060;-73
2022/02/15 11:38:24;;;;;;;18.38;4.32;;;9.60;99.90;;;;;;5012379;28;20046;-72
2022/02/15 11:40:58;;;;;;;20.85;5.47;;;9.50;99.90;;;;;;5013101;28;20057;-66
2022/02/15 11:43:25;;;;;;;9.60;4.80;;;9.50;99.90;;;;;;5013145;28;20038;-68
2022/02/15 11:45:52;;;;;;;15.70;8.02;;;9.50;99.90;;;;;;4996456;28;20056;-65
2022/02/15 11:48:19;;;;;;;15.98;5.10;;;9.50;99.90;;;;;;5012246;28;20061;-69
2022/02/15 11:50:52;;;;;;;10.70;4.78;;;9.50;99.90;;;;;;5011925;28;20054;-69
2022/02/15 11:53:20;;;;;;;15.70;4.38;;;9.50;99.90;;;;;;5012027;28;20093;-69
2022/02/15 11:55:48;;;;;;;12.40;3.65;;;9.50;99.90;;;;;;5013194;28;20062;-69
2022/02/15 11:58:15;;;;;;;14.90;4.07;;;9.50;99.90;;;;;;5012085;28;20057;-70
2022/02/15 12:00:44;;;;;;;13.68;3.78;;;9.50;99.90;;;;;;5013254;28;20050;-71
2022/02/15 12:03:15;;;;;;;;;;;9.40;99.90;;;;;;4996486;28;20531;-70
2022/02/15 12:05:44;;;;;;;22.60;4.70;;;9.40;99.90;;;;;;5012869;28;19927;-70
2022/02/15 12:08:14;;;;;;;15.48;4.00;;;9.50;99.90;;;;;;5009913;28;20053;-70
2022/02/15 12:10:42;;;;;;;16.58;3.78;;;9.50;99.90;;;;;;5010818;28;20046;-72
2022/02/15 12:13:14;;;;;;;16.02;8.82;;;9.50;99.90;;;;;;5011846;28;20050;-66
2022/02/15 12:15:45;;;;;;;14.40;5.88;;;9.50;99.90;;;;;;5044041;28;20053;-72
2022/02/15 12:18:12;;;;;;;17.35;4.32;;;9.50;99.90;;;;;;5011722;28;20195;-69
2022/02/15 12:20:40;;;;;;;13.75;3.47;;;9.50;99.90;;;;;;5027093;28;20045;-67
2022/02/15 12:23:07;;;;;;;16.10;4.15;;;9.50;99.90;;;;;;5010996;28;20054;-69
2022/02/15 12:25:45;;;;;;;14.30;2.90;;;9.50;99.90;;;;;;4995468;28;20046;-71
2022/02/15 12:28:13;;;;;;;17.92;3.90;;;9.50;99.90;;;;;;5011197;28;20080;-70
2022/02/15 12:30:46;;;;;;;9.40;3.03;;;9.50;99.90;;;;;;5027624;28;20046;-66
2022/02/15 12:33:13;;;;;;;11.95;3.15;;;9.50;99.90;;;;;;5011113;28;20421;-69
2022/02/15 12:35:42;;;;;;;16.15;3.85;;;9.50;99.90;;;;;;4995912;28;20058;-70
2022/02/15 12:38:10;;;;;;;14.10;4.22;;;9.50;99.90;;;;;;5007623;28;20061;-74
2022/02/15 12:40:39;;;;;;;10.10;3.42;;;9.50;99.90;;;;;;5008757;28;20485;-73
2022/02/15 12:43:06;;;;;;;13.47;3.37;;;9.50;99.90;;;;;;5035310;28;20054;-73
2022/02/15 12:45:45;;;;;;;11.05;2.45;;;9.50;99.90;;;;;;4997420;28;20330;-73
2022/02/15 12:48:12;;;;;;;7.78;2.58;;;9.40;99.90;;;;;;5010981;28;20565;-72
2022/02/15 12:50:39;;;;;;;9.27;3.28;;;9.50;99.90;;;;;;4994835;28;20162;-73
2022/02/15 12:53:06;;;;;;;9.30;3.15;;;9.40;99.90;;;;;;5011251;28;20053;-73
2022/02/15 12:55:33;;;;;;;8.90;2.83;;;9.40;99.90;;;;;;5012217;28;20050;-72
2022/02/15 12:58:02;;;;;;;9.07;2.65;;;9.40;99.90;;;;;;5010433;28;20046;-71
2022/02/15 13:00:29;;;;;;;7.40;2.58;;;9.40;99.90;;;;;;5011415;28;20042;-71
2022/02/15 13:02:56;;;;;;;6.07;2.60;;;9.50;99.90;;;;;;5011551;28;20042;-72
2022/02/15 13:05:34;;;;;;;8.40;2.55;;;9.50;99.90;;;;;;5025461;28;20143;-71
2022/02/15 13:08:01;;;;;;;27.90;22.33;;;9.50;99.90;;;;;;5005889;28;20057;-75
2022/02/15 13:10:28;;;;;;;6.65;2.63;;;9.50;99.90;;;;;;5023876;28;20058;-76